sensor_id;sensor_type;location;lat;lon;timestamp;pressure;altitude;pressure_sealevel;temperature;humidity
19096;BME280;9680;52.520;13.332;2024-02-21T00:00:33;101784.19;;;8.82;80.94
19096;BME280;9680;52.520;13.332;2024-02-21T00:03:00;101776.41;;;8.81;80.73
19096;BME280;9680;52.520;13.332;2024-02-21T00:05:27;101779.88;;;8.81;80.86
19096;BME280;9680;52.520;13.332;2024-02-21T00:07:55;101773.81;;;8.81;80.94
19096;BME280;9680;52.520;13.332;2024-02-21T00:10:22;101774.69;;;8.80;81.01
19096;BME280;9680;52.520;13.332;2024-02-21T00:12:50;101776.41;;;8.82;80.72
19096;BME280;9680;52.520;13.332;2024-02-21T00:15:17;101777.19;;;8.86;81.15
19096;BME280;9680;52.520;13.332;2024-02-21T00:17:44;101769.34;;;8.89;80.83
19096;BME280;9680;52.520;13.332;2024-02-21T00:20:11;101767.63;;;8.89;80.80
19096;BME280;9680;52.520;13.332;2024-02-21T00:22:38;101765.88;;;8.90;81.06
19096;BME280;9680;52.520;13.332;2024-02-21T00:25:06;101759.00;;;8.86;81.40
19096;BME280;9680;52.520;13.332;2024-02-21T00:27:33;101754.69;;;8.85;81.24
19096;BME280;9680;52.520;13.332;2024-02-21T00:30:00;101754.72;;;8.83;81.49
19096;BME280;9680;52.520;13.332;2024-02-21T00:32:27;101749.53;;;8.82;81.59
19096;BME280;9680;52.520;13.332;2024-02-21T00:34:54;101745.22;;;8.81;81.89
19096;BME280;9680;52.520;13.332;2024-02-21T00:37:21;101748.69;;;8.81;81.93
19096;BME280;9680;52.520;13.332;2024-02-21T00:39:47;101753.91;;;8.80;81.85
19096;BME280;9680;52.520;13.332;2024-02-21T00:42:16;101739.19;;;8.80;81.99
19096;BME280;9680;52.520;13.332;2024-02-21T00:44:43;101747.00;;;8.79;82.07
19096;BME280;9680;52.520;13.332;2024-02-21T00:47:10;101747.88;;;8.79;82.08
19096;BME280;9680;52.520;13.332;2024-02-21T00:49:37;101743.50;;;8.80;81.65
19096;BME280;9680;52.520;13.332;2024-02-21T00:52:03;101739.19;;;8.79;81.77
19096;BME280;9680;52.520;13.332;2024-02-21T00:54:32;101733.16;;;8.78;82.07
19096;BME280;9680;52.520;13.332;2024-02-21T00:56:59;101738.34;;;8.77;81.92
19096;BME280;9680;52.520;13.332;2024-02-21T00:59:27;101734.97;;;8.73;81.61
19096;BME280;9680;52.520;13.332;2024-02-21T01:01:54;101731.53;;;8.69;81.77
19096;BME280;9680;52.520;13.332;2024-02-21T01:04:21;101727.22;;;8.68;81.79
19096;BME280;9680;52.520;13.332;2024-02-21T01:06:50;101725.56;;;8.64;82.01
19096;BME280;9680;52.520;13.332;2024-02-21T01:09:16;101718.63;;;8.65;81.97
19096;BME280;9680;52.520;13.332;2024-02-21T01:11:43;101717.75;;;8.64;82.12
19096;BME280;9680;52.520;13.332;2024-02-21T01:14:10;101719.50;;;8.64;81.85
19096;BME280;9680;52.520;13.332;2024-02-21T01:16:38;101720.41;;;8.63;82.09
19096;BME280;9680;52.520;13.332;2024-02-21T01:19:05;101719.50;;;8.64;81.87
19096;BME280;9680;52.520;13.332;2024-02-21T01:21:32;101716.03;;;8.63;81.73
19096;BME280;9680;52.520;13.332;2024-02-21T01:23:59;101711.69;;;8.65;81.52
19096;BME280;9680;52.520;13.332;2024-02-21T01:26:25;101711.63;;;8.68;81.35
19096;BME280;9680;52.520;13.332;2024-02-21T01:28:52;101709.00;;;8.71;81.52
19096;BME280;9680;52.520;13.332;2024-02-21T01:31:19;101709.81;;;8.75;81.30
19096;BME280;9680;52.520;13.332;2024-02-21T01:33:48;101706.41;;;8.71;80.79
19096;BME280;9680;52.520;13.332;2024-02-21T01:36:14;101704.63;;;8.73;80.93
19096;BME280;9680;52.520;13.332;2024-02-21T01:38:41;101695.13;;;8.72;81.04
19096;BME280;9680;52.520;13.332;2024-02-21T01:41:08;101697.66;;;8.76;81.02
19096;BME280;9680;52.520;13.332;2024-02-21T01:43:35;101696.78;;;8.77;80.95
19096;BME280;9680;52.520;13.332;2024-02-21T01:46:02;101699.38;;;8.78;80.58
19096;BME280;9680;52.520;13.332;2024-02-21T01:48:29;101696.78;;;8.78;80.30
19096;BME280;9680;52.520;13.332;2024-02-21T01:50:58;101698.50;;;8.78;80.46
19096;BME280;9680;52.520;13.332;2024-02-21T01:53:29;101693.25;;;8.81;80.67
19096;BME280;9680;52.520;13.332;2024-02-21T01:55:56;101698.44;;;8.82;80.25
19096;BME280;9680;52.520;13.332;2024-02-21T01:58:24;101686.31;;;8.83;80.25
19096;BME280;9680;52.520;13.332;2024-02-21T02:00:51;101686.25;;;8.86;80.03
19096;BME280;9680;52.520;13.332;2024-02-21T02:03:18;101688.84;;;8.86;79.63
19096;BME280;9680;52.520;13.332;2024-02-21T02:05:45;101677.63;;;8.84;79.95
19096;BME280;9680;52.520;13.332;2024-02-21T02:08:14;101669.81;;;8.85;80.13
19096;BME280;9680;52.520;13.332;2024-02-21T02:10:42;101675.84;;;8.86;79.87
19096;BME280;9680;52.520;13.332;2024-02-21T02:13:09;101669.00;;;8.83;79.99
19096;BME280;9680;52.520;13.332;2024-02-21T02:15:40;101656.88;;;8.82;80.28
19096;BME280;9680;52.520;13.332;2024-02-21T02:18:07;101666.41;;;8.82;80.46
19096;BME280;9680;52.520;13.332;2024-02-21T02:20:35;101666.44;;;8.79;80.97
19096;BME280;9680;52.520;13.332;2024-02-21T02:23:07;101663.00;;;8.77;81.24
19096;BME280;9680;52.520;13.332;2024-02-21T02:25:35;101658.75;;;8.74;81.74
19096;BME280;9680;52.520;13.332;2024-02-21T02:28:03;101658.78;;;8.71;81.73
19096;BME280;9680;52.520;13.332;2024-02-21T02:30:32;101655.31;;;8.70;82.15
19096;BME280;9680;52.520;13.332;2024-02-21T02:32:59;101648.41;;;8.69;82.67
19096;BME280;9680;52.520;13.332;2024-02-21T02:35:26;101650.22;;;8.66;82.83
19096;BME280;9680;52.520;13.332;2024-02-21T02:37:53;101645.91;;;8.63;83.52
19096;BME280;9680;52.520;13.332;2024-02-21T02:40:20;101636.41;;;8.60;83.82
19096;BME280;9680;52.520;13.332;2024-02-21T02:42:48;101639.09;;;8.56;83.91
19096;BME280;9680;52.520;13.332;2024-02-21T02:45:15;101642.63;;;8.52;84.51
19096;BME280;9680;52.520;13.332;2024-02-21T02:47:42;101645.25;;;8.47;85.47
19096;BME280;9680;52.520;13.332;2024-02-21T02:50:09;101640.97;;;8.44;85.75
19096;BME280;9680;52.520;13.332;2024-02-21T02:52:36;101639.25;;;8.43;85.72
19096;BME280;9680;52.520;13.332;2024-02-21T02:55:04;101632.28;;;8.45;86.25
19096;BME280;9680;52.520;13.332;2024-02-21T02:57:31;101630.59;;;8.44;86.63
19096;BME280;9680;52.520;13.332;2024-02-21T02:59:59;101628.03;;;8.41;86.64
19096;BME280;9680;52.520;13.332;2024-02-21T03:02:26;101627.19;;;8.39;87.33
19096;BME280;9680;52.520;13.332;2024-02-21T03:04:53;101615.94;;;8.39;87.92
19096;BME280;9680;52.520;13.332;2024-02-21T03:07:20;101613.38;;;8.37;88.13
19096;BME280;9680;52.520;13.332;2024-02-21T03:09:46;101604.75;;;8.34;88.17
19096;BME280;9680;52.520;13.332;2024-02-21T03:12:13;101615.19;;;8.32;88.86
19096;BME280;9680;52.520;13.332;2024-02-21T03:14:44;101608.28;;;8.29;89.28
19096;BME280;9680;52.520;13.332;2024-02-21T03:17:12;101597.03;;;8.30;89.42
19096;BME280;9680;52.520;13.332;2024-02-21T03:19:40;101594.41;;;8.32;89.44
19096;BME280;9680;52.520;13.332;2024-02-21T03:22:07;101596.19;;;8.30;90.08
19096;BME280;9680;52.520;13.332;2024-02-21T03:24:33;101593.59;;;8.28;89.97
19096;BME280;9680;52.520;13.332;2024-02-21T03:27:00;101603.13;;;8.26;90.53
19096;BME280;9680;52.520;13.332;2024-02-21T03:29:27;101603.16;;;8.25;90.92
19096;BME280;9680;52.520;13.332;2024-02-21T03:31:54;101591.06;;;8.24;91.21
19096;BME280;9680;52.520;13.332;2024-02-21T03:34:23;101592.81;;;8.22;91.54
19096;BME280;9680;52.520;13.332;2024-02-21T03:36:49;101593.72;;;8.18;91.94
19096;BME280;9680;52.520;13.332;2024-02-21T03:39:16;101597.28;;;8.10;92.21
19096;BME280;9680;52.520;13.332;2024-02-21T03:41:43;101588.66;;;8.10;92.72
19096;BME280;9680;52.520;13.332;2024-02-21T03:44:10;101591.28;;;8.08;93.09
19096;BME280;9680;52.520;13.332;2024-02-21T03:46:37;101577.47;;;8.08;92.85
19096;BME280;9680;52.520;13.332;2024-02-21T03:49:03;101584.38;;;8.07;93.50
19096;BME280;9680;52.520;13.332;2024-02-21T03:51:31;101571.44;;;8.06;93.74
19096;BME280;9680;52.520;13.332;2024-02-21T03:53:58;101566.19;;;8.07;93.90
19096;BME280;9680;52.520;13.332;2024-02-21T03:56:25;101560.13;;;8.08;93.97
19096;BME280;9680;52.520;13.332;2024-02-21T03:58:52;101568.78;;;8.09;94.04
19096;BME280;9680;52.520;13.332;2024-02-21T04:01:18;101570.50;;;8.10;94.46
19096;BME280;9680;52.520;13.332;2024-02-21T04:03:45;101563.50;;;8.13;94.54
19096;BME280;9680;52.520;13.332;2024-02-21T04:06:12;101566.16;;;8.12;94.92
19096;BME280;9680;52.520;13.332;2024-02-21T04:08:40;101563.50;;;8.13;95.06
19096;BME280;9680;52.520;13.332;2024-02-21T04:11:07;101557.44;;;8.14;94.90
19096;BME280;9680;52.520;13.332;2024-02-21T04:13:34;101547.91;;;8.16;94.78
19096;BME280;9680;52.520;13.332;2024-02-21T04:16:00;101547.00;;;8.19;95.15
19096;BME280;9680;52.520;13.332;2024-02-21T04:18:28;101532.31;;;8.18;95.07
19096;BME280;9680;52.520;13.332;2024-02-21T04:20:55;101534.03;;;8.18;95.08
19096;BME280;9680;52.520;13.332;2024-02-21T04:23:22;101531.44;;;8.18;94.94
19096;BME280;9680;52.520;13.332;2024-02-21T04:25:50;101532.31;;;8.16;95.18
19096;BME280;9680;52.520;13.332;2024-02-21T04:28:17;101520.19;;;8.19;95.15
19096;BME280;9680;52.520;13.332;2024-02-21T04:30:44;101518.41;;;8.21;95.15
19096;BME280;9680;52.520;13.332;2024-02-21T04:33:11;101507.09;;;8.25;95.30
19096;BME280;9680;52.520;13.332;2024-02-21T04:35:38;101503.59;;;8.29;94.82
19096;BME280;9680;52.520;13.332;2024-02-21T04:38:05;101488.00;;;8.30;94.71
19096;BME280;9680;52.520;13.332;2024-02-21T04:40:31;101490.56;;;8.32;94.65
19096;BME280;9680;52.520;13.332;2024-02-21T04:43:00;101474.13;;;8.33;94.92
19096;BME280;9680;52.520;13.332;2024-02-21T04:45:26;101481.03;;;8.34;94.60
19096;BME280;9680;52.520;13.332;2024-02-21T04:47:53;101483.63;;;8.34;94.79
19096;BME280;9680;52.520;13.332;2024-02-21T04:50:20;101483.63;;;8.34;94.94
19096;BME280;9680;52.520;13.332;2024-02-21T04:52:46;101486.22;;;8.33;94.78
19096;BME280;9680;52.520;13.332;2024-02-21T04:55:14;101476.72;;;8.33;94.88
19096;BME280;9680;52.520;13.332;2024-02-21T04:57:41;101476.75;;;8.30;94.85
19096;BME280;9680;52.520;13.332;2024-02-21T05:00:10;101471.56;;;8.30;94.68
19096;BME280;9680;52.520;13.332;2024-02-21T05:02:37;101467.22;;;8.32;94.61
19096;BME280;9680;52.520;13.332;2024-02-21T05:05:04;101470.66;;;8.33;94.67
19096;BME280;9680;52.520;13.332;2024-02-21T05:07:31;101474.16;;;8.30;94.82
19096;BME280;9680;52.520;13.332;2024-02-21T05:09:57;101470.69;;;8.29;94.58
19096;BME280;9680;52.520;13.332;2024-02-21T05:12:24;101471.59;;;8.28;94.61
19096;BME280;9680;52.520;13.332;2024-02-21T05:14:51;101470.69;;;8.29;94.88
19096;BME280;9680;52.520;13.332;2024-02-21T05:17:19;101476.00;;;8.23;94.41
19096;BME280;9680;52.520;13.332;2024-02-21T05:19:46;101463.03;;;8.22;94.95
19096;BME280;9680;52.520;13.332;2024-02-21T05:22:12;101470.84;;;8.20;94.96
19096;BME280;9680;52.520;13.332;2024-02-21T05:24:39;101459.59;;;8.20;95.07
19096;BME280;9680;52.520;13.332;2024-02-21T05:27:06;101464.78;;;8.21;95.25
19096;BME280;9680;52.520;13.332;2024-02-21T05:29:33;101463.84;;;8.24;95.21
19096;BME280;9680;52.520;13.332;2024-02-21T05:32:00;101465.63;;;8.23;94.71
19096;BME280;9680;52.520;13.332;2024-02-21T05:34:29;101461.25;;;8.24;95.03
19096;BME280;9680;52.520;13.332;2024-02-21T05:36:56;101466.50;;;8.22;94.88
19096;BME280;9680;52.520;13.332;2024-02-21T05:39:25;101478.59;;;8.22;95.05
19096;BME280;9680;52.520;13.332;2024-02-21T05:41:51;101466.50;;;8.22;94.99
19096;BME280;9680;52.520;13.332;2024-02-21T05:44:18;101460.41;;;8.23;94.97
19096;BME280;9680;52.520;13.332;2024-02-21T05:46:47;101456.91;;;8.26;94.78
19096;BME280;9680;52.520;13.332;2024-02-21T05:49:16;101460.38;;;8.26;94.86
19096;BME280;9680;52.520;13.332;2024-02-21T05:51:44;101458.72;;;8.22;94.74
19096;BME280;9680;52.520;13.332;2024-02-21T05:54:11;101450.88;;;8.24;94.63
19096;BME280;9680;52.520;13.332;2024-02-21T05:56:38;101445.63;;;8.27;94.92
19096;BME280;9680;52.520;13.332;2024-02-21T05:59:05;101446.50;;;8.27;94.93
19096;BME280;9680;52.520;13.332;2024-02-21T06:01:32;101444.75;;;8.29;94.91
19096;BME280;9680;52.520;13.332;2024-02-21T06:03:58;101450.75;;;8.31;94.72
19096;BME280;9680;52.520;13.332;2024-02-21T06:06:25;101442.91;;;8.35;94.82
19096;BME280;9680;52.520;13.332;2024-02-21T06:08:53;101447.28;;;8.33;94.48
19096;BME280;9680;52.520;13.332;2024-02-21T06:11:20;101440.41;;;8.30;94.60
19096;BME280;9680;52.520;13.332;2024-02-21T06:13:50;101443.00;;;8.30;94.52
19096;BME280;9680;52.520;13.332;2024-02-21T06:16:17;101444.72;;;8.31;94.59
19096;BME280;9680;52.520;13.332;2024-02-21T06:18:44;101435.16;;;8.33;94.47
19096;BME280;9680;52.520;13.332;2024-02-21T06:21:11;101431.63;;;8.37;94.29
19096;BME280;9680;52.520;13.332;2024-02-21T06:23:38;101432.47;;;8.38;94.21
19096;BME280;9680;52.520;13.332;2024-02-21T06:26:06;101424.69;;;8.38;94.29
19096;BME280;9680;52.520;13.332;2024-02-21T06:28:32;101436.00;;;8.35;93.89
19096;BME280;9680;52.520;13.332;2024-02-21T06:30:59;101423.03;;;8.35;93.66
19096;BME280;9680;52.520;13.332;2024-02-21T06:33:26;101422.16;;;8.35;93.84
19096;BME280;9680;52.520;13.332;2024-02-21T06:35:53;101424.72;;;8.36;94.07
19096;BME280;9680;52.520;13.332;2024-02-21T06:38:19;101433.31;;;8.40;94.03
19096;BME280;9680;52.520;13.332;2024-02-21T06:40:46;101431.53;;;8.43;94.01
19096;BME280;9680;52.520;13.332;2024-02-21T06:43:20;101434.97;;;8.44;93.67
19096;BME280;9680;52.520;13.332;2024-02-21T06:45:47;101433.25;;;8.43;93.55
19096;BME280;9680;52.520;13.332;2024-02-21T06:48:17;101435.84;;;8.44;93.59
19096;BME280;9680;52.520;13.332;2024-02-21T06:50:44;101442.69;;;8.49;93.62
19096;BME280;9680;52.520;13.332;2024-02-21T06:53:11;101432.22;;;8.53;93.55
19096;BME280;9680;52.520;13.332;2024-02-21T06:55:38;101432.22;;;8.55;93.15
19096;BME280;9680;52.520;13.332;2024-02-21T06:58:05;101429.56;;;8.56;93.05
19096;BME280;9680;52.520;13.332;2024-02-21T07:00:35;101433.03;;;8.57;92.84
19096;BME280;9680;52.520;13.332;2024-02-21T07:03:02;101438.22;;;8.57;92.97
19096;BME280;9680;52.520;13.332;2024-02-21T07:05:29;101437.34;;;8.58;92.92
19096;BME280;9680;52.520;13.332;2024-02-21T07:07:56;101436.53;;;8.56;92.45
19096;BME280;9680;52.520;13.332;2024-02-21T07:10:22;101444.25;;;8.59;92.57
19096;BME280;9680;52.520;13.332;2024-02-21T07:12:49;101440.84;;;8.57;92.25
19096;BME280;9680;52.520;13.332;2024-02-21T07:15:17;101432.09;;;8.61;92.28
19096;BME280;9680;52.520;13.332;2024-02-21T07:17:45;101433.81;;;8.60;92.23
19096;BME280;9680;52.520;13.332;2024-02-21T07:20:12;101422.59;;;8.60;91.88
19096;BME280;9680;52.520;13.332;2024-02-21T07:22:39;101425.13;;;8.63;92.13
19096;BME280;9680;52.520;13.332;2024-02-21T07:25:06;101426.78;;;8.67;91.86
19096;BME280;9680;52.520;13.332;2024-02-21T07:27:33;101432.72;;;8.74;91.74
19096;BME280;9680;52.520;13.332;2024-02-21T07:30:00;101430.00;;;8.80;91.53
19096;BME280;9680;52.520;13.332;2024-02-21T07:32:27;101423.81;;;8.86;90.74
19096;BME280;9680;52.520;13.332;2024-02-21T07:34:55;101421.97;;;8.91;90.66
19096;BME280;9680;52.520;13.332;2024-02-21T07:37:22;101416.72;;;8.96;90.36
19096;BME280;9680;52.520;13.332;2024-02-21T07:39:48;101421.91;;;8.96;90.02
19096;BME280;9680;52.520;13.332;2024-02-21T07:42:15;101427.97;;;8.96;89.39
19096;BME280;9680;52.520;13.332;2024-02-21T07:44:42;101424.50;;;8.97;89.48
19096;BME280;9680;52.520;13.332;2024-02-21T07:47:09;101427.91;;;8.99;89.64
19096;BME280;9680;52.520;13.332;2024-02-21T07:49:41;101425.25;;;9.01;89.54
19096;BME280;9680;52.520;13.332;2024-02-21T07:52:09;101432.13;;;9.05;89.22
19096;BME280;9680;52.520;13.332;2024-02-21T07:54:36;101426.91;;;9.05;88.90
19096;BME280;9680;52.520;13.332;2024-02-21T07:57:03;101424.31;;;9.05;89.18
19096;BME280;9680;52.520;13.332;2024-02-21T07:59:30;101420.75;;;9.09;89.04
19096;BME280;9680;52.520;13.332;2024-02-21T08:01:57;101427.78;;;9.06;88.74
19096;BME280;9680;52.520;13.332;2024-02-21T08:04:24;101415.59;;;9.08;88.75
19096;BME280;9680;52.520;13.332;2024-02-21T08:06:51;101431.09;;;9.12;88.68
19096;BME280;9680;52.520;13.332;2024-02-21T08:09:21;101417.16;;;9.16;88.35
19096;BME280;9680;52.520;13.332;2024-02-21T08:11:49;101419.66;;;9.21;88.38
19096;BME280;9680;52.520;13.332;2024-02-21T08:14:15;101415.28;;;9.22;88.12
19096;BME280;9680;52.520;13.332;2024-02-21T08:16:42;101422.22;;;9.23;87.91
19096;BME280;9680;52.520;13.332;2024-02-21T08:19:10;101422.13;;;9.26;87.54
19096;BME280;9680;52.520;13.332;2024-02-21T08:21:37;101411.72;;;9.27;86.80
19096;BME280;9680;52.520;13.332;2024-02-21T08:24:04;101413.41;;;9.30;87.13
19096;BME280;9680;52.520;13.332;2024-02-21T08:26:32;101417.75;;;9.29;86.61
19096;BME280;9680;52.520;13.332;2024-02-21T08:28:59;101409.78;;;9.37;86.33
19096;BME280;9680;52.520;13.332;2024-02-21T08:31:26;101414.84;;;9.43;86.66
19096;BME280;9680;52.520;13.332;2024-02-21T08:33:57;101410.41;;;9.49;86.08
19096;BME280;9680;52.520;13.332;2024-02-21T08:36:28;101408.47;;;9.57;86.05
19096;BME280;9680;52.520;13.332;2024-02-21T08:38:55;101407.44;;;9.64;85.32
19096;BME280;9680;52.520;13.332;2024-02-21T08:41:22;101411.66;;;9.70;85.34
19096;BME280;9680;52.520;13.332;2024-02-21T08:43:51;101408.03;;;9.75;84.67
19096;BME280;9680;52.520;13.332;2024-02-21T08:46:19;101410.22;;;9.94;85.15
19096;BME280;9680;52.520;13.332;2024-02-21T08:48:46;101407.97;;;10.15;84.10
19096;BME280;9680;52.520;13.332;2024-02-21T08:51:13;101402.50;;;10.24;82.55
19096;BME280;9680;52.520;13.332;2024-02-21T08:53:40;101404.03;;;10.33;82.80
19096;BME280;9680;52.520;13.332;2024-02-21T08:56:07;101404.72;;;10.40;81.73
19096;BME280;9680;52.520;13.332;2024-02-21T08:58:35;101409.78;;;10.46;81.52
19096;BME280;9680;52.520;13.332;2024-02-21T09:01:04;101408.63;;;10.56;81.61
19096;BME280;9680;52.520;13.332;2024-02-21T09:03:31;101409.59;;;10.54;79.47
19096;BME280;9680;52.520;13.332;2024-02-21T09:05:58;101414.91;;;10.49;80.48
19096;BME280;9680;52.520;13.332;2024-02-21T09:08:25;101413.09;;;10.53;80.35
19096;BME280;9680;52.520;13.332;2024-02-21T09:10:52;101402.66;;;10.53;80.37
19096;BME280;9680;52.520;13.332;2024-02-21T09:13:19;101415.78;;;10.49;79.96
19096;BME280;9680;52.520;13.332;2024-02-21T09:15:47;101412.22;;;10.52;79.56
19096;BME280;9680;52.520;13.332;2024-02-21T09:18:15;101408.69;;;10.55;79.35
19096;BME280;9680;52.520;13.332;2024-02-21T09:20:43;101407.59;;;10.63;78.49
19096;BME280;9680;52.520;13.332;2024-02-21T09:23:10;101403.38;;;10.58;78.74
19096;BME280;9680;52.520;13.332;2024-02-21T09:25:37;101405.22;;;10.54;78.31
19096;BME280;9680;52.520;13.332;2024-02-21T09:28:03;101399.88;;;10.59;78.71
19096;BME280;9680;52.520;13.332;2024-02-21T09:30:31;101392.00;;;10.62;78.56
19096;BME280;9680;52.520;13.332;2024-02-21T09:32:58;101397.38;;;10.56;78.26
19096;BME280;9680;52.520;13.332;2024-02-21T09:35:28;101392.16;;;10.56;78.48
19096;BME280;9680;52.520;13.332;2024-02-21T09:37:55;101391.88;;;10.67;78.67
19096;BME280;9680;52.520;13.332;2024-02-21T09:40:21;101387.84;;;10.86;78.59
19096;BME280;9680;52.520;13.332;2024-02-21T09:42:57;101389.16;;;11.01;77.79
19096;BME280;9680;52.520;13.332;2024-02-21T09:45:29;101380.53;;;10.99;76.96
19096;BME280;9680;52.520;13.332;2024-02-21T09:48:05;101377.34;;;11.18;76.40
19096;BME280;9680;52.520;13.332;2024-02-21T09:50:40;101371.16;;;11.22;75.95
19096;BME280;9680;52.520;13.332;2024-02-21T09:53:07;101382.09;;;11.33;76.06
19096;BME280;9680;52.520;13.332;2024-02-21T09:55:35;101376.69;;;11.40;75.19
19096;BME280;9680;52.520;13.332;2024-02-21T09:58:05;101387.78;;;11.46;75.42
19096;BME280;9680;52.520;13.332;2024-02-21T10:00:32;101382.41;;;11.51;74.35
19096;BME280;9680;52.520;13.332;2024-02-21T10:02:59;101385.00;;;11.53;74.56
19096;BME280;9680;52.520;13.332;2024-02-21T10:05:25;101372.88;;;11.50;74.24
19096;BME280;9680;52.520;13.332;2024-02-21T10:07:55;101376.59;;;11.43;73.66
19096;BME280;9680;52.520;13.332;2024-02-21T10:10:22;101375.06;;;11.35;74.18
19096;BME280;9680;52.520;13.332;2024-02-21T10:12:49;101380.34;;;11.34;73.40
19096;BME280;9680;52.520;13.332;2024-02-21T10:15:20;101381.25;;;11.33;73.61
19096;BME280;9680;52.520;13.332;2024-02-21T10:17:48;101378.41;;;11.41;73.51
19096;BME280;9680;52.520;13.332;2024-02-21T10:20:14;101376.47;;;11.47;73.21
19096;BME280;9680;52.520;13.332;2024-02-21T10:22:41;101380.81;;;11.47;72.84
19096;BME280;9680;52.520;13.332;2024-02-21T10:25:10;101378.47;;;11.39;71.96
19096;BME280;9680;52.520;13.332;2024-02-21T10:27:38;101386.22;;;11.41;72.75
19096;BME280;9680;52.520;13.332;2024-02-21T10:30:07;101381.69;;;11.47;73.07
19096;BME280;9680;52.520;13.332;2024-02-21T10:32:35;101384.31;;;11.46;71.59
19096;BME280;9680;52.520;13.332;2024-02-21T10:35:02;101396.53;;;11.45;71.52
19096;BME280;9680;52.520;13.332;2024-02-21T10:37:30;101381.97;;;11.38;72.57
19096;BME280;9680;52.520;13.332;2024-02-21T10:39:57;101389.59;;;11.44;73.27
19096;BME280;9680;52.520;13.332;2024-02-21T10:42:28;101387.59;;;11.53;72.81
19096;BME280;9680;52.520;13.332;2024-02-21T10:45:00;101373.16;;;11.42;72.79
19096;BME280;9680;52.520;13.332;2024-02-21T10:47:28;101375.28;;;11.29;72.76
19096;BME280;9680;52.520;13.332;2024-02-21T10:50:02;101364.41;;;11.15;73.85
19096;BME280;9680;52.520;13.332;2024-02-21T10:52:35;101378.34;;;11.14;74.20
19096;BME280;9680;52.520;13.332;2024-02-21T10:55:10;101367.94;;;11.12;73.95
19096;BME280;9680;52.520;13.332;2024-02-21T10:57:42;101367.13;;;11.12;74.81
19096;BME280;9680;52.520;13.332;2024-02-21T11:00:10;101370.19;;;10.96;74.84
19096;BME280;9680;52.520;13.332;2024-02-21T11:02:38;101365.38;;;10.82;77.09
19096;BME280;9680;52.520;13.332;2024-02-21T11:05:06;101359.75;;;10.96;77.75
19096;BME280;9680;52.520;13.332;2024-02-21T11:07:36;101343.94;;;11.31;77.38
19096;BME280;9680;52.520;13.332;2024-02-21T11:10:04;101340.63;;;11.53;75.82
19096;BME280;9680;52.520;13.332;2024-02-21T11:12:33;101330.19;;;11.53;75.49
19096;BME280;9680;52.520;13.332;2024-02-21T11:15:05;101326.66;;;11.80;75.74
19096;BME280;9680;52.520;13.332;2024-02-21T11:17:32;101330.13;;;12.08;73.59
19096;BME280;9680;52.520;13.332;2024-02-21T11:19:59;101324.06;;;12.07;73.91
19096;BME280;9680;52.520;13.332;2024-02-21T11:22:41;101302.50;;;12.26;72.80
19096;BME280;9680;52.520;13.332;2024-02-21T11:25:08;101305.75;;;12.33;72.33
19096;BME280;9680;52.520;13.332;2024-02-21T11:27:37;101306.16;;;12.46;72.17
19096;BME280;9680;52.520;13.332;2024-02-21T11:30:06;101305.06;;;12.75;71.93
19096;BME280;9680;52.520;13.332;2024-02-21T11:32:33;101292.13;;;12.94;71.49
19096;BME280;9680;52.520;13.332;2024-02-21T11:35:01;101283.75;;;13.08;70.13
19096;BME280;9680;52.520;13.332;2024-02-21T11:37:30;101298.94;;;12.99;70.02
19096;BME280;9680;52.520;13.332;2024-02-21T11:39:59;101279.28;;;12.88;68.45
19096;BME280;9680;52.520;13.332;2024-02-21T11:42:26;101278.56;;;13.07;69.49
19096;BME280;9680;52.520;13.332;2024-02-21T11:44:54;101273.44;;;13.26;68.16
19096;BME280;9680;52.520;13.332;2024-02-21T11:47:23;101273.06;;;13.35;66.16
19096;BME280;9680;52.520;13.332;2024-02-21T11:49:50;101259.03;;;13.16;66.44
19096;BME280;9680;52.520;13.332;2024-02-21T11:52:21;101256.00;;;13.27;66.90
19096;BME280;9680;52.520;13.332;2024-02-21T11:54:50;101258.59;;;13.49;65.74
19096;BME280;9680;52.520;13.332;2024-02-21T11:57:18;101247.91;;;13.33;65.37
19096;BME280;9680;52.520;13.332;2024-02-21T11:59:45;101245.88;;;13.17;65.62
19096;BME280;9680;52.520;13.332;2024-02-21T12:02:12;101243.31;;;12.95;66.07
19096;BME280;9680;52.520;13.332;2024-02-21T12:04:41;101240.31;;;12.82;66.04
19096;BME280;9680;52.520;13.332;2024-02-21T12:07:08;101241.66;;;12.92;67.09
19096;BME280;9680;52.520;13.332;2024-02-21T12:09:35;101245.09;;;13.15;66.58
19096;BME280;9680;52.520;13.332;2024-02-21T12:12:03;101240.00;;;13.12;66.28
19096;BME280;9680;52.520;13.332;2024-02-21T12:14:31;101225.44;;;13.27;66.15
19096;BME280;9680;52.520;13.332;2024-02-21T12:16:59;101225.00;;;13.38;64.58
19096;BME280;9680;52.520;13.332;2024-02-21T12:19:28;101226.75;;;13.17;64.79
19096;BME280;9680;52.520;13.332;2024-02-21T12:21:58;101208.34;;;13.18;65.72
19096;BME280;9680;52.520;13.332;2024-02-21T12:24:27;101208.16;;;13.23;66.08
19096;BME280;9680;52.520;13.332;2024-02-21T12:26:55;101212.75;;;13.18;65.35
19096;BME280;9680;52.520;13.332;2024-02-21T12:29:24;101207.72;;;12.91;66.17
19096;BME280;9680;52.520;13.332;2024-02-21T12:31:51;101204.25;;;13.13;66.00
19096;BME280;9680;52.520;13.332;2024-02-21T12:34:19;101196.00;;;13.22;66.24
19096;BME280;9680;52.520;13.332;2024-02-21T12:36:47;101193.03;;;13.09;65.59
19096;BME280;9680;52.520;13.332;2024-02-21T12:39:15;101191.38;;;12.86;66.34
19096;BME280;9680;52.520;13.332;2024-02-21T12:41:43;101179.13;;;12.65;66.94
19096;BME280;9680;52.520;13.332;2024-02-21T12:44:11;101183.16;;;12.50;67.32
19096;BME280;9680;52.520;13.332;2024-02-21T12:46:38;101174.22;;;12.34;67.97
19096;BME280;9680;52.520;13.332;2024-02-21T12:49:05;101173.25;;;12.36;68.58
19096;BME280;9680;52.520;13.332;2024-02-21T12:51:32;101184.09;;;12.49;68.42
19096;BME280;9680;52.520;13.332;2024-02-21T12:54:00;101178.06;;;12.70;69.05
19096;BME280;9680;52.520;13.332;2024-02-21T12:56:29;101169.91;;;12.77;67.86
19096;BME280;9680;52.520;13.332;2024-02-21T12:58:56;101165.34;;;12.82;67.65